createdAt,value
2019-02-04T00:01:54.799Z,80.95
2019-02-04T00:04:24.497Z,80.97
2019-02-04T00:06:54.326Z,80.98
2019-02-04T00:09:23.917Z,81.13
2019-02-04T00:11:53.950Z,81.27
2019-02-04T00:14:26.986Z,81.50
2019-02-04T00:16:56.605Z,81.44
2019-02-04T00:19:26.214Z,81.45
2019-02-04T00:21:55.962Z,81.29
2019-02-04T00:24:25.655Z,81.23
2019-02-04T00:26:55.408Z,81.33
2019-02-04T00:29:25.342Z,81.48
2019-02-04T00:31:55.006Z,81.67
2019-02-04T00:34:24.634Z,81.79
2019-02-04T00:36:54.277Z,81.91
2019-02-04T00:39:24.097Z,81.99
2019-02-04T00:41:53.846Z,82.06
2019-02-04T00:44:23.710Z,82.08
2019-02-04T00:46:53.509Z,82.07
2019-02-04T00:49:23.060Z,82.02
2019-02-04T00:51:52.861Z,82.14
2019-02-04T00:54:22.515Z,82.20
2019-02-04T00:56:52.386Z,82.45
2019-02-04T00:59:21.940Z,82.65
2019-02-04T01:01:51.578Z,82.94
2019-02-04T01:04:21.228Z,82.88
2019-02-04T01:06:51.406Z,82.85
2019-02-04T01:09:21.088Z,82.73
2019-02-04T01:11:50.776Z,82.82
2019-02-04T01:14:20.479Z,83.06
2019-02-04T01:16:50.282Z,83.22
2019-02-04T01:19:20.339Z,83.49
2019-02-04T01:21:50.048Z,83.47
2019-02-04T01:24:19.571Z,83.62
2019-02-04T01:26:49.180Z,83.82
2019-02-04T01:29:18.729Z,83.75
2019-02-04T01:31:48.618Z,83.63
2019-02-04T01:34:18.564Z,83.49
2019-02-04T01:36:48.253Z,83.30
2019-02-04T01:39:18.063Z,83.42
2019-02-04T01:41:47.588Z,83.33
2019-02-04T01:44:17.257Z,83.42
2019-02-04T01:46:46.828Z,83.53
2019-02-04T01:49:16.721Z,83.66
2019-02-04T01:51:46.278Z,83.82
2019-02-04T01:54:15.906Z,83.94
2019-02-04T01:56:45.501Z,83.82
2019-02-04T01:59:14.984Z,83.95
2019-02-04T02:01:44.559Z,83.85
2019-02-04T02:04:14.702Z,83.75
2019-02-04T02:06:44.306Z,83.68
2019-02-04T02:09:22.970Z,83.69
2019-02-04T02:11:52.517Z,83.67
2019-02-04T02:14:22.506Z,83.60
2019-02-04T02:16:52.335Z,83.74
2019-02-04T02:19:23.503Z,83.96
2019-02-04T02:21:53.255Z,83.96
2019-02-04T02:24:22.798Z,84.10
2019-02-04T02:26:52.529Z,84.10
2019-02-04T02:29:22.321Z,84.03
2019-02-04T02:31:52.002Z,84.07
2019-02-04T02:34:21.905Z,84.05
2019-02-04T02:36:52.363Z,84.15
2019-02-04T02:39:22.010Z,84.25
2019-02-04T02:41:52.110Z,84.33
2019-02-04T02:44:21.792Z,84.41
2019-02-04T02:46:51.480Z,84.39
2019-02-04T02:49:21.129Z,84.43
2019-02-04T02:51:50.826Z,84.37
2019-02-04T02:54:20.391Z,84.38
2019-02-04T02:56:50.318Z,84.43
2019-02-04T02:59:19.932Z,84.45
2019-02-04T03:01:49.768Z,84.36
2019-02-04T03:04:19.431Z,84.41
2019-02-04T03:06:49.313Z,84.33
2019-02-04T03:09:18.934Z,84.39
2019-02-04T03:11:48.588Z,84.44
2019-02-04T03:14:18.149Z,84.44
2019-02-04T03:16:47.860Z,84.40
2019-02-04T03:19:17.531Z,84.36
2019-02-04T03:21:47.305Z,84.40
2019-02-04T03:24:17.539Z,84.31
2019-02-04T03:26:47.097Z,84.16
2019-02-04T03:29:16.833Z,84.20
2019-02-04T03:31:46.718Z,84.29
2019-02-04T03:34:16.361Z,84.45
2019-02-04T03:36:46.129Z,84.39
2019-02-04T03:39:15.803Z,84.39
2019-02-04T03:41:45.390Z,84.46
2019-02-04T03:44:14.986Z,84.69
2019-02-04T03:46:44.560Z,84.67
2019-02-04T03:49:14.361Z,84.80
2019-02-04T03:51:44.407Z,84.93
2019-02-04T03:54:14.045Z,84.94
2019-02-04T03:56:43.643Z,84.90
2019-02-04T03:59:13.510Z,84.81
2019-02-04T04:01:43.073Z,84.94
2019-02-04T04:04:12.730Z,84.98
2019-02-04T04:06:42.578Z,85.08
2019-02-04T04:09:12.595Z,85.17
2019-02-04T04:11:42.487Z,85.17
2019-02-04T04:14:12.181Z,85.22
2019-02-04T04:16:42.091Z,85.23
2019-02-04T04:19:12.192Z,85.18
2019-02-04T04:21:42.076Z,85.27
2019-02-04T04:24:11.897Z,85.30
2019-02-04T04:26:41.529Z,85.30
2019-02-04T04:29:11.317Z,85.25
2019-02-04T04:31:41.084Z,85.30
2019-02-04T04:34:10.851Z,85.31
2019-02-04T04:36:40.404Z,85.31
2019-02-04T04:39:10.276Z,85.32
2019-02-04T04:41:40.206Z,85.32
2019-02-04T04:44:09.989Z,85.35
2019-02-04T04:46:39.951Z,85.28
2019-02-04T04:49:09.626Z,85.25
2019-02-04T04:51:39.361Z,85.21
2019-02-04T04:54:09.200Z,85.16
2019-02-04T04:56:39.061Z,85.19
2019-02-04T04:59:09.113Z,85.17
2019-02-04T05:01:38.780Z,85.14
2019-02-04T05:04:08.479Z,85.18
2019-02-04T05:06:38.408Z,85.14
2019-02-04T05:09:08.836Z,85.16
2019-02-04T05:11:38.776Z,85.15
2019-02-04T05:14:08.454Z,85.13
2019-02-04T05:16:39.394Z,85.15
2019-02-04T05:19:10.315Z,85.26
2019-02-04T05:21:40.371Z,85.19
2019-02-04T05:24:10.240Z,85.16
2019-02-04T05:26:39.956Z,85.18
2019-02-04T05:29:10.027Z,85.21
2019-02-04T05:31:39.632Z,85.23
2019-02-04T05:34:09.586Z,85.21
2019-02-04T05:36:39.531Z,85.26
2019-02-04T05:39:09.532Z,85.24
2019-02-04T05:41:39.506Z,85.17
2019-02-04T05:44:09.405Z,85.03
2019-02-04T05:46:39.048Z,84.99
2019-02-04T05:49:08.824Z,84.99
2019-02-04T05:51:38.412Z,84.99
2019-02-04T05:54:10.163Z,85.01
2019-02-04T05:56:39.610Z,84.94
2019-02-04T05:59:09.514Z,84.91
2019-02-04T06:01:39.460Z,84.87
2019-02-04T06:04:09.173Z,84.86
2019-02-04T06:06:39.083Z,84.95
2019-02-04T06:09:09.750Z,84.91
2019-02-04T06:11:39.729Z,84.87
2019-02-04T06:14:09.471Z,84.85
2019-02-04T06:16:39.343Z,84.86
2019-02-04T06:19:09.474Z,84.87
2019-02-04T06:21:39.752Z,84.85
2019-02-04T06:24:09.514Z,84.82
2019-02-04T06:26:39.596Z,84.83
2019-02-04T06:29:09.434Z,84.76
2019-02-04T06:31:39.155Z,84.74
2019-02-04T06:34:09.660Z,84.68
2019-02-04T06:36:40.154Z,84.63
2019-02-04T06:39:12.334Z,84.56
2019-02-04T06:41:42.301Z,84.57
2019-02-04T06:44:13.882Z,84.59
2019-02-04T06:46:43.673Z,84.65
2019-02-04T06:49:13.638Z,84.71
2019-02-04T06:51:43.234Z,84.73
2019-02-04T06:54:12.882Z,84.74
2019-02-04T06:56:42.828Z,84.70
2019-02-04T06:59:13.025Z,84.67
2019-02-04T07:01:42.637Z,84.68
2019-02-04T07:04:12.668Z,84.50
2019-02-04T07:06:42.502Z,84.41
2019-02-04T07:09:13.253Z,84.39
2019-02-04T07:11:43.025Z,84.42
2019-02-04T07:14:12.897Z,84.38
2019-02-04T07:16:42.619Z,84.35
2019-02-04T07:19:23.328Z,84.25
2019-02-04T07:21:43.942Z,84.16
2019-02-04T07:24:13.660Z,84.05
2019-02-04T07:26:43.329Z,84.14
2019-02-04T07:29:13.003Z,84.16
2019-02-04T07:31:42.958Z,84.18
2019-02-04T07:34:12.653Z,84.23
2019-02-04T07:36:42.419Z,84.30
2019-02-04T07:39:12.134Z,84.35
2019-02-04T07:41:42.083Z,84.29
2019-02-04T07:44:12.035Z,84.21
2019-02-04T07:46:42.268Z,84.21
2019-02-04T07:49:12.096Z,84.23
2019-02-04T07:51:41.872Z,84.17
2019-02-04T07:54:11.569Z,84.21
2019-02-04T07:56:41.549Z,84.19
2019-02-04T07:59:11.508Z,84.09
2019-02-04T08:01:41.520Z,83.99
2019-02-04T08:04:11.351Z,84.10
2019-02-04T08:06:41.324Z,84.07
2019-02-04T08:09:11.705Z,84.01
2019-02-04T08:11:41.486Z,83.94
2019-02-04T08:14:11.581Z,83.88
2019-02-04T08:16:41.510Z,83.87
2019-02-04T08:19:11.355Z,83.87
2019-02-04T08:21:41.169Z,83.84
2019-02-04T08:24:10.961Z,83.45
2019-02-04T08:26:40.920Z,83.57
2019-02-04T08:29:10.673Z,83.50
2019-02-04T08:31:40.440Z,83.49
2019-02-04T08:34:10.248Z,83.55
2019-02-04T08:36:46.000Z,83.48
2019-02-04T08:39:11.410Z,83.34
2019-02-04T08:41:41.178Z,83.27
2019-02-04T08:44:11.089Z,83.29
2019-02-04T08:46:40.837Z,83.25
2019-02-04T08:49:10.595Z,83.22
2019-02-04T08:51:40.379Z,83.18
2019-02-04T08:54:10.326Z,83.13
2019-02-04T08:56:42.901Z,83.14
2019-02-04T08:59:11.765Z,83.10
2019-02-04T09:01:41.602Z,83.12
2019-02-04T09:04:11.574Z,82.95
2019-02-04T09:06:42.818Z,82.90
2019-02-04T09:09:13.071Z,82.85
2019-02-04T09:11:43.026Z,82.81
2019-02-04T09:14:12.640Z,82.80
2019-02-04T09:16:42.666Z,82.65
2019-02-04T09:19:12.583Z,82.61
2019-02-04T09:21:42.555Z,82.59
2019-02-04T09:24:13.644Z,82.60
2019-02-04T09:26:43.656Z,82.59
2019-02-04T09:29:13.572Z,82.49
2019-02-04T09:31:46.845Z,82.43
2019-02-04T09:34:17.695Z,82.35
2019-02-04T09:36:47.677Z,82.26
2019-02-04T09:39:17.734Z,82.19
2019-02-04T09:41:47.317Z,82.20
2019-02-04T09:44:17.244Z,82.27
2019-02-04T09:46:52.617Z,82.44
2019-02-04T09:49:22.634Z,82.25
2019-02-04T09:51:52.286Z,82.16
2019-02-04T09:54:22.169Z,82.23
2019-02-04T09:56:52.076Z,82.25
2019-02-04T09:59:22.529Z,82.15
2019-02-04T10:01:52.188Z,82.02
2019-02-04T10:04:21.916Z,81.93
2019-02-04T10:06:51.661Z,81.83
2019-02-04T10:09:21.415Z,81.84
2019-02-04T10:11:50.972Z,81.80
2019-02-04T10:14:20.478Z,81.59
2019-02-04T10:16:50.241Z,81.64
2019-02-04T10:19:19.780Z,81.57
2019-02-04T10:21:49.622Z,81.56
2019-02-04T10:24:19.174Z,81.67
2019-02-04T10:26:48.765Z,81.70
2019-02-04T10:29:18.439Z,81.69
2019-02-04T10:31:48.688Z,81.67
2019-02-04T10:34:18.425Z,81.70
2019-02-04T10:36:48.201Z,81.77
2019-02-04T10:39:18.029Z,81.89
2019-02-04T10:41:48.243Z,82.03
2019-02-04T10:44:18.418Z,82.10
2019-02-04T10:46:48.606Z,82.13
2019-02-04T10:49:18.555Z,82.18
2019-02-04T10:51:48.304Z,82.31
2019-02-04T10:54:18.161Z,82.29
2019-02-04T10:56:47.906Z,82.48
2019-02-04T10:59:17.662Z,82.61
2019-02-04T11:01:47.176Z,82.75
2019-02-04T11:04:17.149Z,82.86
2019-02-04T11:06:47.072Z,82.85
2019-02-04T11:09:16.792Z,82.84
2019-02-04T11:11:46.391Z,82.96
2019-02-04T11:14:16.334Z,83.03
2019-02-04T11:16:46.017Z,83.18
2019-02-04T11:19:15.943Z,83.31
2019-02-04T11:21:45.679Z,83.28
2019-02-04T11:24:15.374Z,83.34
2019-02-04T11:26:45.092Z,83.41
2019-02-04T11:29:14.976Z,83.47
2019-02-04T11:31:45.051Z,83.62
2019-02-04T11:34:14.786Z,83.62
2019-02-04T11:36:44.536Z,83.61
2019-02-04T11:39:14.189Z,83.62
2019-02-04T11:41:43.884Z,83.75
2019-02-04T11:44:13.564Z,83.66
2019-02-04T11:46:43.472Z,83.69
2019-02-04T11:49:13.079Z,83.62
2019-02-04T11:51:42.920Z,83.59
2019-02-04T11:54:12.817Z,83.88
2019-02-04T11:56:42.584Z,83.90
2019-02-04T11:59:13.831Z,83.89
2019-02-04T12:01:43.635Z,83.87
2019-02-04T12:04:13.497Z,83.75
2019-02-04T12:06:43.303Z,83.67
2019-02-04T12:09:13.293Z,83.87
2019-02-04T12:11:42.902Z,84.00
2019-02-04T12:14:12.779Z,83.98
2019-02-04T12:16:42.368Z,83.95
2019-02-04T12:19:12.194Z,83.94
2019-02-04T12:21:42.023Z,84.05
2019-02-04T12:24:11.983Z,84.25
2019-02-04T12:26:41.548Z,84.30
2019-02-04T12:29:11.423Z,84.37
2019-02-04T12:31:41.311Z,84.37
2019-02-04T12:34:11.081Z,84.40
2019-02-04T12:36:41.041Z,84.37
2019-02-04T12:39:18.809Z,84.49
2019-02-04T12:41:50.607Z,84.51
2019-02-04T12:44:20.163Z,84.47
2019-02-04T12:46:49.812Z,84.49
2019-02-04T12:49:20.093Z,84.64
2019-02-04T12:51:49.806Z,84.64
2019-02-04T12:54:19.684Z,84.59
2019-02-04T12:56:49.391Z,84.53
2019-02-04T12:59:19.037Z,84.58
2019-02-04T13:01:48.698Z,84.75
2019-02-04T13:04:18.658Z,84.75
2019-02-04T13:06:48.348Z,84.78
2019-02-04T13:09:18.407Z,84.78
2019-02-04T13:11:48.196Z,84.83
2019-02-04T13:14:17.791Z,84.87
2019-02-04T13:16:47.416Z,85.06
2019-02-04T13:19:17.320Z,85.03
2019-02-04T13:21:46.942Z,85.12
2019-02-04T13:24:16.646Z,85.16
2019-02-04T13:26:46.362Z,85.32
2019-02-04T13:29:15.976Z,85.30
2019-02-04T13:31:45.605Z,85.33
2019-02-04T13:34:15.292Z,85.48
2019-02-04T13:36:45.226Z,85.42
2019-02-04T13:39:14.969Z,85.42
2019-02-04T13:41:44.723Z,85.38
2019-02-04T13:44:14.310Z,85.74
2019-02-04T13:46:44.766Z,85.71
2019-02-04T13:49:14.557Z,85.64
2019-02-04T13:51:44.334Z,85.54
2019-02-04T13:54:14.152Z,85.56
2019-02-04T13:56:43.799Z,85.66
2019-02-04T13:59:13.513Z,85.68
2019-02-04T14:01:43.213Z,85.67
2019-02-04T14:04:13.205Z,85.78
2019-02-04T14:06:43.033Z,85.76
2019-02-04T14:09:18.447Z,85.70
2019-02-04T14:11:48.355Z,85.66
2019-02-04T14:14:17.938Z,85.86
2019-02-04T14:16:47.763Z,85.96
2019-02-04T14:19:17.325Z,85.78
2019-02-04T14:21:47.290Z,85.78
2019-02-04T14:24:16.913Z,86.12
2019-02-04T14:26:46.554Z,86.05
2019-02-04T14:29:16.243Z,86.43
2019-02-04T14:31:45.976Z,86.12
2019-02-04T14:34:17.017Z,86.06
2019-02-04T14:36:46.809Z,86.17
2019-02-04T14:39:16.864Z,86.30
2019-02-04T14:41:46.413Z,86.20
2019-02-04T14:44:43.631Z,86.21
2019-02-04T14:47:21.493Z,86.43
2019-02-04T14:50:12.695Z,86.58
2019-02-04T14:53:03.664Z,86.70
2019-02-04T14:56:04.411Z,86.77
2019-02-04T14:59:06.761Z,86.84
2019-02-04T15:02:14.594Z,86.71
2019-02-04T15:05:09.959Z,86.86
2019-02-04T15:08:05.821Z,86.76
2019-02-04T15:11:09.213Z,86.65
2019-02-04T15:14:19.618Z,86.86
2019-02-04T15:17:03.231Z,86.95
2019-02-04T15:20:06.487Z,86.76
2019-02-04T15:23:39.589Z,86.93
2019-02-04T15:27:23.101Z,86.64
2019-02-04T15:30:43.354Z,86.64
2019-02-04T15:33:31.846Z,86.87
2019-02-04T15:36:35.361Z,86.73
2019-02-04T15:39:34.816Z,86.65
2019-02-04T15:42:42.820Z,86.79
2019-02-04T15:45:50.540Z,86.84
2019-02-04T15:48:27.854Z,87.03
2019-02-04T15:51:13.920Z,87.17
2019-02-04T15:53:43.872Z,87.07
2019-02-04T15:56:13.691Z,87.02
2019-02-04T15:58:43.456Z,86.92
2019-02-04T16:01:13.086Z,87.02
2019-02-04T16:03:42.699Z,86.93
2019-02-04T16:06:12.445Z,86.85
2019-02-04T16:08:42.300Z,87.16
2019-02-04T16:11:13.184Z,87.22
2019-02-04T16:13:42.772Z,87.05
2019-02-04T16:16:12.659Z,87.16
2019-02-04T16:18:42.492Z,86.88
2019-02-04T16:21:12.446Z,86.96
2019-02-04T16:23:43.346Z,87.07
2019-02-04T16:26:15.187Z,87.05
2019-02-04T16:28:44.345Z,86.97
2019-02-04T16:31:14.045Z,86.80
2019-02-04T16:33:43.590Z,86.91
2019-02-04T16:36:13.323Z,86.73
2019-02-04T16:38:43.123Z,86.82
2019-02-04T16:41:12.839Z,86.85
2019-02-04T16:43:42.450Z,86.55
2019-02-04T16:46:12.808Z,86.68
2019-02-04T16:48:42.484Z,86.71
2019-02-04T16:51:13.614Z,86.74
2019-02-04T16:53:43.373Z,86.71
2019-02-04T16:56:13.078Z,86.50
2019-02-04T16:58:42.690Z,86.44
2019-02-04T17:01:12.704Z,86.57
2019-02-04T17:03:42.564Z,86.50
2019-02-04T17:06:12.815Z,86.58
2019-02-04T17:08:43.385Z,86.59
2019-02-04T17:11:13.465Z,86.49
2019-02-04T17:13:43.162Z,86.53
2019-02-04T17:16:13.054Z,86.54
2019-02-04T17:18:43.076Z,86.20
2019-02-04T17:21:13.514Z,86.33
2019-02-04T17:23:43.410Z,86.39
2019-02-04T17:26:14.270Z,86.51
2019-02-04T17:28:44.281Z,86.44
2019-02-04T17:31:15.086Z,86.40
2019-02-04T17:33:45.082Z,86.47
2019-02-04T17:36:15.765Z,86.36
2019-02-04T17:38:45.532Z,86.13
2019-02-04T17:41:15.413Z,86.33
2019-02-04T17:43:46.085Z,86.25
2019-02-04T17:46:17.979Z,86.34
2019-02-04T17:48:50.269Z,86.40
2019-02-04T17:51:20.142Z,86.00
2019-02-04T17:53:49.905Z,86.16
2019-02-04T17:56:19.913Z,86.14
2019-02-04T17:58:49.581Z,86.23
2019-02-04T18:01:19.788Z,86.20
2019-02-04T18:03:49.721Z,86.39
2019-02-04T18:06:19.541Z,86.35
2019-02-04T18:08:49.509Z,86.35
2019-02-04T18:11:19.204Z,86.28
2019-02-04T18:13:48.993Z,86.23
2019-02-04T18:16:18.928Z,86.28
2019-02-04T18:18:48.797Z,86.00
2019-02-04T18:21:18.487Z,86.18
2019-02-04T18:23:48.366Z,86.37
2019-02-04T18:26:18.570Z,86.56
2019-02-04T18:28:48.613Z,86.44
2019-02-04T18:31:18.312Z,86.59
2019-02-04T18:33:47.869Z,86.69
2019-02-04T18:36:17.728Z,86.56
2019-02-04T18:38:47.662Z,86.68
2019-02-04T18:41:17.267Z,86.48
2019-02-04T18:43:47.129Z,86.41
2019-02-04T18:46:17.735Z,86.42
2019-02-04T18:48:47.757Z,86.44
2019-02-04T18:51:17.471Z,86.16
2019-02-04T18:53:57.370Z,86.48
2019-02-04T18:56:19.938Z,86.52
2019-02-04T18:58:52.877Z,86.44
2019-02-04T19:01:24.066Z,86.45
2019-02-04T19:03:53.901Z,86.62
2019-02-04T19:06:24.061Z,86.59
2019-02-04T19:08:53.990Z,86.72
2019-02-04T19:11:23.932Z,86.61
2019-02-04T19:13:53.898Z,86.63
2019-02-04T19:16:23.779Z,86.75
2019-02-04T19:18:54.643Z,86.62
2019-02-04T19:21:25.787Z,86.80
2019-02-04T19:23:55.739Z,86.66
2019-02-04T19:26:25.692Z,86.83
2019-02-04T19:29:43.294Z,86.70
2019-02-04T19:32:15.003Z,86.41
2019-02-04T19:34:44.899Z,86.70
2019-02-04T19:37:14.914Z,86.59
2019-02-04T19:39:44.758Z,86.50
2019-02-04T19:42:17.749Z,86.85
2019-02-04T19:44:46.550Z,86.79
2019-02-04T19:47:16.351Z,86.72
2019-02-04T19:49:46.410Z,86.63
2019-02-04T19:52:16.323Z,87.04
2019-02-04T19:54:47.271Z,86.62
2019-02-04T19:57:17.212Z,86.75
2019-02-04T19:59:46.998Z,86.89
2019-02-04T20:02:16.860Z,87.02
2019-02-04T20:04:46.598Z,87.08
2019-02-04T20:07:16.469Z,86.80
2019-02-04T20:09:46.516Z,86.89
2019-02-04T20:12:16.393Z,86.99
2019-02-04T20:14:46.064Z,86.92
2019-02-04T20:17:16.341Z,86.87
2019-02-04T20:19:46.276Z,86.78
2019-02-04T20:22:16.086Z,87.06
2019-02-04T20:24:45.929Z,87.12
2019-02-04T20:27:16.193Z,87.01
2019-02-04T20:29:46.628Z,87.17
2019-02-04T20:32:16.442Z,87.08
2019-02-04T20:34:46.259Z,87.14
2019-02-04T20:37:16.267Z,87.18
2019-02-04T20:39:46.296Z,87.00
2019-02-04T20:42:16.065Z,87.11
2019-02-04T20:44:45.805Z,87.09
2019-02-04T20:47:15.645Z,87.25
2019-02-04T20:49:45.497Z,87.08
2019-02-04T20:52:15.682Z,87.29
2019-02-04T20:54:45.478Z,87.41
2019-02-04T20:57:15.417Z,87.12
2019-02-04T20:59:45.253Z,87.21
2019-02-04T21:02:15.336Z,87.22
2019-02-04T21:04:45.214Z,87.30
2019-02-04T21:07:15.223Z,87.31
2019-02-04T21:09:44.988Z,87.30
2019-02-04T21:12:15.172Z,87.22
2019-02-04T21:14:44.985Z,87.03
2019-02-04T21:17:15.810Z,86.89
2019-02-04T21:19:45.542Z,87.08
2019-02-04T21:22:15.400Z,86.99
2019-02-04T21:24:56.045Z,86.92
2019-02-04T21:27:16.450Z,87.10
2019-02-04T21:29:46.479Z,87.11
2019-02-04T21:32:16.425Z,87.31
2019-02-04T21:34:46.263Z,87.34
2019-02-04T21:37:16.211Z,87.46
2019-02-04T21:39:45.986Z,87.28
2019-02-04T21:42:15.644Z,87.21
2019-02-04T21:44:45.174Z,87.34
2019-02-04T21:47:14.924Z,87.34
2019-02-04T21:49:44.800Z,87.35
2019-02-04T21:52:14.827Z,87.10
2019-02-04T21:54:44.559Z,87.34
2019-02-04T21:57:15.397Z,87.18
2019-02-04T21:59:45.015Z,87.26
2019-02-04T22:02:14.607Z,87.47
2019-02-04T22:04:44.465Z,87.40
2019-02-04T22:07:14.149Z,87.30
2019-02-04T22:09:43.808Z,87.21
2019-02-04T22:12:13.390Z,87.18
2019-02-04T22:14:43.060Z,87.09
2019-02-04T22:17:13.077Z,87.07
2019-02-04T22:19:42.659Z,87.12
2019-02-04T22:22:12.618Z,87.17
2019-02-04T22:24:42.410Z,87.22
2019-02-04T22:27:12.345Z,87.16
2019-02-04T22:29:42.021Z,87.13
2019-02-04T22:32:11.972Z,87.13
2019-02-04T22:34:42.088Z,87.09
2019-02-04T22:37:11.967Z,87.19
2019-02-04T22:39:41.635Z,87.25
2019-02-04T22:42:11.529Z,87.37
2019-02-04T22:44:41.290Z,87.12
2019-02-04T22:47:11.128Z,87.03
2019-02-04T22:49:41.027Z,87.00
2019-02-04T22:52:11.211Z,87.03
2019-02-04T22:54:41.152Z,87.12
2019-02-04T22:57:11.218Z,86.89
2019-02-04T22:59:41.008Z,86.94
2019-02-04T23:02:11.617Z,86.96
2019-02-04T23:04:41.338Z,87.00
2019-02-04T23:07:11.190Z,86.97
2019-02-04T23:09:40.904Z,86.91
2019-02-04T23:12:10.687Z,86.96
2019-02-04T23:14:40.321Z,86.93
2019-02-04T23:17:10.048Z,86.87
2019-02-04T23:19:39.689Z,86.85
2019-02-04T23:22:09.518Z,87.00
2019-02-04T23:24:39.097Z,86.75
2019-02-04T23:27:08.906Z,86.88
2019-02-04T23:29:38.995Z,86.78
2019-02-04T23:32:08.670Z,86.87
2019-02-04T23:34:40.357Z,86.86
2019-02-04T23:37:10.121Z,86.91
2019-02-04T23:39:39.832Z,86.89
2019-02-04T23:42:09.882Z,86.97
2019-02-04T23:44:39.811Z,86.79
2019-02-04T23:47:09.587Z,86.69
2019-02-04T23:49:39.413Z,86.85
2019-02-04T23:52:09.024Z,86.86
2019-02-04T23:54:38.829Z,86.91
2019-02-04T23:57:09.044Z,86.93
2019-02-04T23:59:39.049Z,86.66
